Flight Track Log - Related Links

Times and Time Zones

All times are in EDT time to prevent confusion due to time zone crossing. See the AAL1642 flight status page for this flight to view local times or setup timezone preferences in your user account.


Time Position Orientation Groundspeed Altitude Reporting Facility
EDT Latitude Longitude Course Direction KTS MPH feet Rate Location/Type
Fri 12:07:00 PM 41.9167 -87.9000 167° South 173 199 3,300  Level Chicago TRACON
Fri 12:08:00 PM 41.7425 -87.4942 158° South  Level Estimated
Fri 12:08:41 PM 41.8122 -87.8867 175° South 244 281 7,300  Level Chicago Center
Fri 12:09:00 PM 41.6625 -87.3575 153° Southeast  Level Estimated
Fri 12:09:42 PM 41.7428 -87.8356 151° Southeast 289 333 10,600  Level Chicago Center
Fri 12:10:00 PM 41.5823 -87.2210 166° South  Level Estimated
Fri 12:10:44 PM 41.6742 -87.7739 146° Southeast 297 342 13,800  Level Chicago Center
Fri 12:11:00 PM 41.5019 -87.0849 163° South  Level Estimated
Fri 12:11:46 PM 41.5972 -87.7144 150° Southeast 312 359 15,600  Level Chicago Center
Fri 12:12:00 PM 41.4302 -86.9640 167° South  Level Estimated
Fri 12:12:48 PM 41.4881 -87.6200 147° Southeast 385 443 17,500  Level Chicago Center
Fri 12:13:50 PM 41.3839 -87.5656 159° South 404 465 19,800 1,790 Climbing Chicago Center
Fri 12:14:52 PM 41.2719 -87.5453 172° South 405 466 21,200 1,597 Climbing Chicago Center
Fri 12:15:54 PM 41.1531 -87.5203 171° South 427 491 23,100 1,742 Climbing Chicago Center
Fri 12:16:56 PM 41.0297 -87.4867 168° South 447 514 24,800 1,694 Climbing Chicago Center
Fri 12:17:58 PM 40.9058 -87.4531 168° South 454 522 26,600 1,500 Climbing Chicago Center
Fri 12:19:00 PM 40.7781 -87.4211 169° South 468 539 27,900 1,839 Climbing Chicago Center
Fri 12:20:02 PM 40.6294 -87.3811 168° South 456 525 30,400 1,984 Climbing Chicago Center
Fri 12:21:04 PM 40.5075 -87.3478 168° South 450 518 32,000 1,355 Climbing Chicago Center
Fri 12:22:06 PM 40.3914 -87.2800 156° South 479 551 33,200 1,113 Climbing Chicago Center
Fri 12:23:08 PM 40.2831 -87.1783 144° Southeast 480 552 34,300 823 Climbing Chicago Center
Fri 12:24:10 PM 40.1753 -87.0758 144° Southeast 477 549 34,900 339 Climbing Chicago Center
Fri 12:25:12 PM 40.0647 -86.9747 145° Southeast 482 555 35,000 51 Climbing Chicago Center
Fri 12:26:08 PM 39.9525 -86.8728 145° Southeast 485 558 35,000  Level Indianapolis Center
Fri 12:27:10 PM 39.8369 -86.7875 150° Southeast 477 549 35,000  Level Indianapolis Center
Fri 12:28:12 PM 39.7181 -86.7189 156° South 468 539 35,000  Level Indianapolis Center
Fri 12:29:14 PM 39.5794 -86.6331 154° Southeast 474 545 35,000  Level Indianapolis Center
Fri 12:30:16 PM 39.4758 -86.5192 140° Southeast 506 582 35,000  Level Indianapolis Center
Fri 12:31:18 PM 39.4136 -86.3469 115° Southeast 529 609 35,000  Level Indianapolis Center
Fri 12:32:20 PM 39.3525 -86.1744 115° Southeast 531 611 35,000  Level Indianapolis Center
Fri 12:33:21 PM 39.2897 -86.0033 115° Southeast 529 609 35,000 -49 Level Indianapolis Center
Fri 12:34:23 PM 39.2158 -85.8039 116° Southeast 526 605 34,900 -48 Descending Indianapolis Center
Fri 12:35:25 PM 39.1533 -85.6311 115° Southeast 531 611 34,900 48 Level Indianapolis Center
Fri 12:36:27 PM 39.1064 -85.4486 108° East 534 615 35,000 48 Climbing Indianapolis Center
Fri 12:37:29 PM 39.0553 -85.2697 110° East 533 613 35,000  Level Indianapolis Center
Fri 12:38:31 PM 39.0050 -85.0881 110° East 537 618 35,000 -48 Level Indianapolis Center
Fri 12:39:33 PM 38.9514 -84.9086 111° Southeast 534 615 34,900 -48 Descending Indianapolis Center
Fri 12:40:35 PM 38.8925 -84.6986 110° East 533 613 34,900  Level Indianapolis Center
Fri 12:41:37 PM 38.8383 -84.5139 111° Southeast 537 618 34,900 32 Level Indianapolis Center
Fri 12:43:00 PM 38.7641 -84.3242 110° East  Level FlightAware Approximate
Fri 12:43:41 PM 38.7317 -84.1500 110° East 544 626 35,000  Level Indianapolis Center
Fri 12:44:43 PM 38.6764 -83.9692 111° Southeast 544 626 35,000  Level Indianapolis Center
Fri 12:45:45 PM 38.6197 -83.7772 111° Southeast 541 623 35,000  Level Indianapolis Center
Fri 12:46:47 PM 38.5644 -83.5986 112° Southeast 539 620 35,000  Level Indianapolis Center
Fri 12:47:49 PM 38.5106 -83.4200 111° Southeast 537 618 35,000 -48 Level Indianapolis Center
Fri 12:48:51 PM 38.4558 -83.2389 111° Southeast 540 621 34,900 -48 Descending Indianapolis Center
Fri 12:49:53 PM 38.3922 -83.0308 111° Southeast 540 621 34,900 48 Level Indianapolis Center
Fri 12:50:55 PM 38.3361 -82.8497 112° Southeast 547 629 35,000 48 Climbing Indianapolis Center
Fri 12:51:57 PM 38.2792 -82.6708 112° Southeast 545 627 35,000 48 Level Indianapolis Center
Fri 12:52:59 PM 38.2203 -82.4819 112° Southeast 550 633 35,100  Climbing Indianapolis Center
Fri 12:54:01 PM 38.1433 -82.3206 121° Southeast 541 623 35,000 -48 Descending Indianapolis Center
Fri 12:55:03 PM 38.0758 -82.1522 117° Southeast 540 621 35,000  Level Indianapolis Center
Fri 12:56:05 PM 38.0178 -81.9756 113° Southeast 545 627 35,000  Level Indianapolis Center
Fri 12:57:07 PM 37.9569 -81.7994 114° Southeast 548 631 35,000 -144 Level Indianapolis Center
Fri 12:58:10 PM 37.8842 -81.5886 114° Southeast 548 631 34,700 -624 Descending Indianapolis Center
Fri 12:59:12 PM 37.8189 -81.4028 114° Southeast 545 627 33,700 -945 Descending Indianapolis Center
Fri 01:00:17 PM 37.7586 -81.2394 115° Southeast 531 611 32,700 -1,286 Descending Washington Center
Fri 01:01:18 PM 37.6978 -81.0644 114° Southeast 531 611 31,000 -1,650 Descending Washington Center
Fri 01:02:17 PM 37.6386 -80.8975 114° Southeast 536 617 29,400 -1,008 Descending Washington Center
Fri 01:03:17 PM 37.5717 -80.7119 114° Southeast 536 617 29,000 -347 Descending Washington Center
Fri 01:04:18 PM 37.5119 -80.5428 114° Southeast 531 611 28,700 -645 Descending Washington Center
Fri 01:05:18 PM 37.4539 -80.3822 114° Southeast 525 604 27,700 -942 Descending Washington Center
Fri 01:06:19 PM 37.3936 -80.2189 115° Southeast 518 596 26,800 -958 Descending Washington Center
Fri 01:07:17 PM 37.3383 -80.0772 116° Southeast 508 585 25,800 -1,008 Descending Washington Center
Fri 01:08:18 PM 37.2581 -79.9392 126° Southeast 501 577 24,800 -942 Descending Washington Center
Fri 01:09:18 PM 37.1750 -79.8069 128° Southeast 491 565 23,900 -900 Descending Washington Center
Fri 01:10:18 PM 37.0883 -79.6667 128° Southeast 473 544 23,000 -446 Descending Washington Center
Fri 01:11:19 PM 37.0089 -79.5403 128° Southeast 467 537 23,000 -545 Level Washington Center
Fri 01:12:19 PM 36.9275 -79.4139 129° Southeast 467 537 21,900 -1,881 Descending Washington Center
Fri 01:13:17 PM 36.8600 -79.3094 129° Southeast 457 526 19,300 -1,916 Descending Washington Center
Fri 01:14:18 PM 36.7903 -79.1969 128° Southeast 436 502 18,100 -1,438 Descending Washington Center
Fri 01:15:18 PM 36.7225 -79.0903 128° Southeast 407 468 16,400 -1,950 Descending Washington Center
Fri 01:16:18 PM 36.6414 -79.0089 141° Southeast 371 427 14,200 -2,165 Descending Washington Center
Fri 01:16:55 PM 36.5794 -78.9881 165° South 347 399 12,900 -1,869 Descending Washington Center
Fri 01:17:19 PM 36.5464 -78.9789 167° South 332 382 12,300 -1,800 Descending Washington Center
Fri 01:17:55 PM 36.4883 -78.9661 170° South 331 381 11,100 -1,895 Descending Washington Center
Fri 01:18:16 PM 36.4572 -78.9544 163° South 332 382 10,500 -1,082 Descending Washington Center
Fri 01:18:56 PM 36.3972 -78.9364 166° South 330 380 10,000 -492 Descending Washington Center
Fri 01:19:17 PM 36.3725 -78.9300 168° South 342 394 10,000 -250 Level Washington Center
Fri 01:20:08 PM 36.2894 -78.9083 168° South 317 365 9,700 -1,046 Descending Washington Center
Fri 01:21:06 PM 36.2192 -78.8850 165° South 282 325 8,100 -956 Descending Washington Center
Fri 01:22:01 PM 36.1531 -78.8667 167° South 275 316 7,900 -82 Descending Washington Center
Fri 01:22:19 PM 36.1386 -78.8611 163° South 289 333 8,000 103 Climbing Washington Center
Fri 01:22:59 PM 36.0825 -78.8483 170° South 239 275 8,000 -103 Level Washington Center
Fri 01:23:17 PM 36.0658 -78.8450 171° South 260 299 7,900  Descending Washington Center
Fri 01:24:00 PM 36.0161 -78.8406 176° South 243 280 8,000 98 Climbing Washington Center
Fri 01:24:18 PM 35.9992 -78.8422 185° South 249 287 8,000 -689 Level Washington Center
Fri 01:25:01 PM 35.9550 -78.8611 199° South 237 273 7,300 -1,180 Descending Washington Center
Fri 01:25:19 PM 35.9419 -78.8758 222° Southwest 233 268 6,800 -1,574 Descending Washington Center
Fri 01:26:02 PM 35.9014 -78.9128 216° Southwest 222 255 5,700 -1,552 Descending Washington Center
Fri 01:26:17 PM 35.8928 -78.9250 229° Southwest 228 262 5,300 -1,500 Descending Washington Center
Fri 01:27:02 PM 35.8542 -78.9569 214° Southwest 223 257 4,200 -1,467 Descending Washington Center

Login

Don't have an account? Register now (free) for customized features, flight alerts, and more!